sensor_id;sensor_type;location;lat;lon;timestamp;temperature;humidity
1447;DHT22;717;51.522;7.266;2024-02-21T00:02:23;12.20;99.90
1447;DHT22;717;51.522;7.266;2024-02-21T00:04:53;12.10;99.90
1447;DHT22;717;51.522;7.266;2024-02-21T00:07:23;12.10;99.90
1447;DHT22;717;51.522;7.266;2024-02-21T00:09:56;12.10;99.90
1447;DHT22;717;51.522;7.266;2024-02-21T00:12:27;12.10;99.90
1447;DHT22;717;51.522;7.266;2024-02-21T00:14:57;12.00;99.90
1447;DHT22;717;51.522;7.266;2024-02-21T00:17:27;12.00;99.90
1447;DHT22;717;51.522;7.266;2024-02-21T00:19:58;12.00;99.90
1447;DHT22;717;51.522;7.266;2024-02-21T00:22:28;12.00;99.90
1447;DHT22;717;51.522;7.266;2024-02-21T00:25:03;12.00;99.90
1447;DHT22;717;51.522;7.266;2024-02-21T00:27:34;12.00;99.90
1447;DHT22;717;51.522;7.266;2024-02-21T00:30:05;12.00;99.90
1447;DHT22;717;51.522;7.266;2024-02-21T00:32:35;12.00;99.90
1447;DHT22;717;51.522;7.266;2024-02-21T00:35:06;12.00;99.90
1447;DHT22;717;51.522;7.266;2024-02-21T00:37:36;12.00;99.90
1447;DHT22;717;51.522;7.266;2024-02-21T00:40:09;12.00;99.90
1447;DHT22;717;51.522;7.266;2024-02-21T00:42:40;11.90;99.90
1447;DHT22;717;51.522;7.266;2024-02-21T00:45:10;12.00;99.90
1447;DHT22;717;51.522;7.266;2024-02-21T00:47:40;12.00;99.90
1447;DHT22;717;51.522;7.266;2024-02-21T00:50:10;12.00;99.90
1447;DHT22;717;51.522;7.266;2024-02-21T00:52:40;12.00;99.90
1447;DHT22;717;51.522;7.266;2024-02-21T00:55:14;12.00;99.90
1447;DHT22;717;51.522;7.266;2024-02-21T00:57:44;12.00;99.90
1447;DHT22;717;51.522;7.266;2024-02-21T01:00:15;12.00;99.90
1447;DHT22;717;51.522;7.266;2024-02-21T01:02:45;12.00;99.90
1447;DHT22;717;51.522;7.266;2024-02-21T01:05:19;12.10;99.90
1447;DHT22;717;51.522;7.266;2024-02-21T01:07:50;12.00;99.90
1447;DHT22;717;51.522;7.266;2024-02-21T01:10:23;12.00;99.90
1447;DHT22;717;51.522;7.266;2024-02-21T01:12:53;12.00;99.90
1447;DHT22;717;51.522;7.266;2024-02-21T01:15:24;12.00;99.90
1447;DHT22;717;51.522;7.266;2024-02-21T01:17:54;12.00;99.90
1447;DHT22;717;51.522;7.266;2024-02-21T01:20:24;12.00;99.90
1447;DHT22;717;51.522;7.266;2024-02-21T01:22:54;12.00;99.90
1447;DHT22;717;51.522;7.266;2024-02-21T01:25:28;12.00;99.90
1447;DHT22;717;51.522;7.266;2024-02-21T01:27:58;12.00;99.90
1447;DHT22;717;51.522;7.266;2024-02-21T01:30:28;12.00;99.90
1447;DHT22;717;51.522;7.266;2024-02-21T01:32:58;12.00;99.90
1447;DHT22;717;51.522;7.266;2024-02-21T01:35:28;12.00;99.90
1447;DHT22;717;51.522;7.266;2024-02-21T01:37:59;12.00;99.90
1447;DHT22;717;51.522;7.266;2024-02-21T01:40:31;12.00;99.90
1447;DHT22;717;51.522;7.266;2024-02-21T01:43:02;12.00;99.90
1447;DHT22;717;51.522;7.266;2024-02-21T01:45:32;12.00;99.90
1447;DHT22;717;51.522;7.266;2024-02-21T01:48:03;12.00;99.90
1447;DHT22;717;51.522;7.266;2024-02-21T01:50:33;12.00;99.90
1447;DHT22;717;51.522;7.266;2024-02-21T01:53:04;12.10;99.90
1447;DHT22;717;51.522;7.266;2024-02-21T01:55:37;12.00;99.90
1447;DHT22;717;51.522;7.266;2024-02-21T01:58:10;12.00;99.90
1447;DHT22;717;51.522;7.266;2024-02-21T02:00:42;12.00;99.90
1447;DHT22;717;51.522;7.266;2024-02-21T02:03:13;12.10;99.90
1447;DHT22;717;51.522;7.266;2024-02-21T02:05:45;12.00;99.90
1447;DHT22;717;51.522;7.266;2024-02-21T02:08:16;12.00;99.90
1447;DHT22;717;51.522;7.266;2024-02-21T02:10:49;12.00;99.90
1447;DHT22;717;51.522;7.266;2024-02-21T02:13:20;11.90;99.90
1447;DHT22;717;51.522;7.266;2024-02-21T02:15:51;11.90;99.90
1447;DHT22;717;51.522;7.266;2024-02-21T02:18:21;11.90;99.90
1447;DHT22;717;51.522;7.266;2024-02-21T02:20:51;11.90;99.90
1447;DHT22;717;51.522;7.266;2024-02-21T02:23:26;12.00;99.90
1447;DHT22;717;51.522;7.266;2024-02-21T02:25:56;12.00;99.90
1447;DHT22;717;51.522;7.266;2024-02-21T02:28:28;12.10;99.90
1447;DHT22;717;51.522;7.266;2024-02-21T02:30:58;12.10;99.90
1447;DHT22;717;51.522;7.266;2024-02-21T02:33:28;12.00;99.90
1447;DHT22;717;51.522;7.266;2024-02-21T02:35:58;12.00;99.90
1447;DHT22;717;51.522;7.266;2024-02-21T02:38:31;11.90;99.90
1447;DHT22;717;51.522;7.266;2024-02-21T02:41:01;11.90;99.90
1447;DHT22;717;51.522;7.266;2024-02-21T02:43:32;12.00;99.90
1447;DHT22;717;51.522;7.266;2024-02-21T02:46:04;11.90;99.90
1447;DHT22;717;51.522;7.266;2024-02-21T02:48:34;12.00;99.90
1447;DHT22;717;51.522;7.266;2024-02-21T02:51:05;11.90;99.90
1447;DHT22;717;51.522;7.266;2024-02-21T02:53:38;11.90;99.90
1447;DHT22;717;51.522;7.266;2024-02-21T02:56:14;11.90;99.90
1447;DHT22;717;51.522;7.266;2024-02-21T02:58:44;11.80;99.90
1447;DHT22;717;51.522;7.266;2024-02-21T03:01:14;11.90;99.90
1447;DHT22;717;51.522;7.266;2024-02-21T03:03:45;11.90;99.90
1447;DHT22;717;51.522;7.266;2024-02-21T03:06:15;12.00;99.90
1447;DHT22;717;51.522;7.266;2024-02-21T03:08:48;12.00;99.90
1447;DHT22;717;51.522;7.266;2024-02-21T03:11:21;12.00;99.90
1447;DHT22;717;51.522;7.266;2024-02-21T03:13:57;11.90;99.90
1447;DHT22;717;51.522;7.266;2024-02-21T03:16:27;11.90;99.90
1447;DHT22;717;51.522;7.266;2024-02-21T03:18:58;12.00;99.90
1447;DHT22;717;51.522;7.266;2024-02-21T03:21:28;12.00;99.90
1447;DHT22;717;51.522;7.266;2024-02-21T03:24:00;12.00;99.90
1447;DHT22;717;51.522;7.266;2024-02-21T03:26:31;11.90;99.90
1447;DHT22;717;51.522;7.266;2024-02-21T03:29:01;11.90;99.90
1447;DHT22;717;51.522;7.266;2024-02-21T03:31:31;11.90;99.90
1447;DHT22;717;51.522;7.266;2024-02-21T03:34:02;11.90;99.90
1447;DHT22;717;51.522;7.266;2024-02-21T03:36:32;11.90;99.90
1447;DHT22;717;51.522;7.266;2024-02-21T03:39:05;12.00;99.90
1447;DHT22;717;51.522;7.266;2024-02-21T03:41:36;12.00;99.90
1447;DHT22;717;51.522;7.266;2024-02-21T03:44:06;12.00;99.90
1447;DHT22;717;51.522;7.266;2024-02-21T03:46:36;12.00;99.90
1447;DHT22;717;51.522;7.266;2024-02-21T03:49:06;12.00;99.90
1447;DHT22;717;51.522;7.266;2024-02-21T03:51:37;12.00;99.90
1447;DHT22;717;51.522;7.266;2024-02-21T03:54:10;12.00;99.90
1447;DHT22;717;51.522;7.266;2024-02-21T03:56:40;12.00;99.90
1447;DHT22;717;51.522;7.266;2024-02-21T03:59:10;12.00;99.90
1447;DHT22;717;51.522;7.266;2024-02-21T04:01:40;12.00;99.90
1447;DHT22;717;51.522;7.266;2024-02-21T04:04:11;12.10;99.90
1447;DHT22;717;51.522;7.266;2024-02-21T04:06:46;12.00;99.90
1447;DHT22;717;51.522;7.266;2024-02-21T04:09:19;12.00;99.90
1447;DHT22;717;51.522;7.266;2024-02-21T04:11:49;12.10;99.90
1447;DHT22;717;51.522;7.266;2024-02-21T04:14:20;12.10;99.90
1447;DHT22;717;51.522;7.266;2024-02-21T04:16:50;12.10;99.90
1447;DHT22;717;51.522;7.266;2024-02-21T04:19:20;12.10;99.90
1447;DHT22;717;51.522;7.266;2024-02-21T04:21:50;12.10;99.90
1447;DHT22;717;51.522;7.266;2024-02-21T04:24:23;12.10;99.90
1447;DHT22;717;51.522;7.266;2024-02-21T04:26:53;12.00;99.90
1447;DHT22;717;51.522;7.266;2024-02-21T04:29:23;12.00;99.90
1447;DHT22;717;51.522;7.266;2024-02-21T04:31:55;12.00;99.90
1447;DHT22;717;51.522;7.266;2024-02-21T04:34:25;12.00;99.90
1447;DHT22;717;51.522;7.266;2024-02-21T04:36:55;12.00;99.90
1447;DHT22;717;51.522;7.266;2024-02-21T04:39:28;11.90;99.90
1447;DHT22;717;51.522;7.266;2024-02-21T04:41:58;11.90;99.90
1447;DHT22;717;51.522;7.266;2024-02-21T04:44:28;11.90;99.90
1447;DHT22;717;51.522;7.266;2024-02-21T04:46:59;12.00;99.90
1447;DHT22;717;51.522;7.266;2024-02-21T04:49:30;11.90;99.90
1447;DHT22;717;51.522;7.266;2024-02-21T04:52:01;11.90;99.90
1447;DHT22;717;51.522;7.266;2024-02-21T04:54:34;11.90;99.90
1447;DHT22;717;51.522;7.266;2024-02-21T04:57:05;11.90;99.90
1447;DHT22;717;51.522;7.266;2024-02-21T04:59:38;12.00;99.90
1447;DHT22;717;51.522;7.266;2024-02-21T05:02:08;12.00;99.90
1447;DHT22;717;51.522;7.266;2024-02-21T05:04:42;12.00;99.90
1447;DHT22;717;51.522;7.266;2024-02-21T05:07:12;12.00;99.90
1447;DHT22;717;51.522;7.266;2024-02-21T05:09:46;12.00;99.90
1447;DHT22;717;51.522;7.266;2024-02-21T05:12:16;12.10;99.90
1447;DHT22;717;51.522;7.266;2024-02-21T05:14:48;12.10;99.90
1447;DHT22;717;51.522;7.266;2024-02-21T05:17:18;12.10;99.90
1447;DHT22;717;51.522;7.266;2024-02-21T05:19:48;12.10;99.90
1447;DHT22;717;51.522;7.266;2024-02-21T05:22:18;12.10;99.90
1447;DHT22;717;51.522;7.266;2024-02-21T05:24:51;12.00;99.90
1447;DHT22;717;51.522;7.266;2024-02-21T05:27:21;12.10;99.90
1447;DHT22;717;51.522;7.266;2024-02-21T05:29:53;12.10;99.90
1447;DHT22;717;51.522;7.266;2024-02-21T05:32:23;12.10;99.90
1447;DHT22;717;51.522;7.266;2024-02-21T05:34:53;12.10;99.90
1447;DHT22;717;51.522;7.266;2024-02-21T05:37:25;12.00;99.90
1447;DHT22;717;51.522;7.266;2024-02-21T05:39:57;12.00;99.90
1447;DHT22;717;51.522;7.266;2024-02-21T05:42:27;12.00;99.90
1447;DHT22;717;51.522;7.266;2024-02-21T05:44:57;12.00;99.90
1447;DHT22;717;51.522;7.266;2024-02-21T05:47:28;12.00;99.90
1447;DHT22;717;51.522;7.266;2024-02-21T05:49:58;12.10;99.90
1447;DHT22;717;51.522;7.266;2024-02-21T05:52:28;12.10;99.90
1447;DHT22;717;51.522;7.266;2024-02-21T05:55:01;12.00;99.90
1447;DHT22;717;51.522;7.266;2024-02-21T05:57:30;12.10;99.90
1447;DHT22;717;51.522;7.266;2024-02-21T06:00:04;12.00;99.90
1447;DHT22;717;51.522;7.266;2024-02-21T06:02:40;12.00;99.90
1447;DHT22;717;51.522;7.266;2024-02-21T06:05:10;12.10;99.90
1447;DHT22;717;51.522;7.266;2024-02-21T06:07:41;12.10;99.90
1447;DHT22;717;51.522;7.266;2024-02-21T06:10:14;12.10;99.90
1447;DHT22;717;51.522;7.266;2024-02-21T06:12:44;12.10;99.90
1447;DHT22;717;51.522;7.266;2024-02-21T06:15:14;12.10;99.90
1447;DHT22;717;51.522;7.266;2024-02-21T06:17:45;12.10;99.90
1447;DHT22;717;51.522;7.266;2024-02-21T06:20:16;12.10;99.90
1447;DHT22;717;51.522;7.266;2024-02-21T06:22:46;12.10;99.90
1447;DHT22;717;51.522;7.266;2024-02-21T06:25:19;12.10;99.90
1447;DHT22;717;51.522;7.266;2024-02-21T06:27:49;12.10;99.90
1447;DHT22;717;51.522;7.266;2024-02-21T06:30:19;12.10;99.90
1447;DHT22;717;51.522;7.266;2024-02-21T06:32:50;12.10;99.90
1447;DHT22;717;51.522;7.266;2024-02-21T06:35:23;12.10;99.90
1447;DHT22;717;51.522;7.266;2024-02-21T06:37:54;12.10;99.90
1447;DHT22;717;51.522;7.266;2024-02-21T06:40:27;12.10;99.90
1447;DHT22;717;51.522;7.266;2024-02-21T06:42:58;12.10;99.90
1447;DHT22;717;51.522;7.266;2024-02-21T06:45:28;12.10;99.90
1447;DHT22;717;51.522;7.266;2024-02-21T06:47:59;12.10;99.90
1447;DHT22;717;51.522;7.266;2024-02-21T06:50:29;12.20;99.90
1447;DHT22;717;51.522;7.266;2024-02-21T06:52:59;12.20;99.90
1447;DHT22;717;51.522;7.266;2024-02-21T06:55:32;12.20;99.90
1447;DHT22;717;51.522;7.266;2024-02-21T06:58:03;12.20;99.90
1447;DHT22;717;51.522;7.266;2024-02-21T07:00:36;12.20;99.90
1447;DHT22;717;51.522;7.266;2024-02-21T07:03:06;12.20;99.90
1447;DHT22;717;51.522;7.266;2024-02-21T07:05:37;12.20;99.90
1447;DHT22;717;51.522;7.266;2024-02-21T07:08:08;12.20;99.90
1447;DHT22;717;51.522;7.266;2024-02-21T07:10:40;12.10;99.90
1447;DHT22;717;51.522;7.266;2024-02-21T07:13:11;12.10;99.90
1447;DHT22;717;51.522;7.266;2024-02-21T07:15:42;12.10;99.90
1447;DHT22;717;51.522;7.266;2024-02-21T07:18:13;12.10;99.90
1447;DHT22;717;51.522;7.266;2024-02-21T07:20:43;12.10;99.90
1447;DHT22;717;51.522;7.266;2024-02-21T07:23:13;12.00;99.90
1447;DHT22;717;51.522;7.266;2024-02-21T07:25:46;12.00;99.90
1447;DHT22;717;51.522;7.266;2024-02-21T07:28:16;12.00;99.90
1447;DHT22;717;51.522;7.266;2024-02-21T07:30:44;12.00;99.90
1447;DHT22;717;51.522;7.266;2024-02-21T07:33:16;12.10;99.90
1447;DHT22;717;51.522;7.266;2024-02-21T07:35:47;12.10;99.90
1447;DHT22;717;51.522;7.266;2024-02-21T07:38:17;12.10;99.90
1447;DHT22;717;51.522;7.266;2024-02-21T07:40:51;12.20;99.90
1447;DHT22;717;51.522;7.266;2024-02-21T07:43:22;12.20;99.90
1447;DHT22;717;51.522;7.266;2024-02-21T07:45:53;12.10;99.90
1447;DHT22;717;51.522;7.266;2024-02-21T07:48:24;12.10;99.90
1447;DHT22;717;51.522;7.266;2024-02-21T07:50:55;12.30;99.90
1447;DHT22;717;51.522;7.266;2024-02-21T07:53:25;12.20;99.90
1447;DHT22;717;51.522;7.266;2024-02-21T07:55:58;12.30;99.90
1447;DHT22;717;51.522;7.266;2024-02-21T07:58:29;12.30;99.90
1447;DHT22;717;51.522;7.266;2024-02-21T08:00:59;12.30;99.90
1447;DHT22;717;51.522;7.266;2024-02-21T08:03:29;12.30;99.90
1447;DHT22;717;51.522;7.266;2024-02-21T08:06:00;12.20;99.90
1447;DHT22;717;51.522;7.266;2024-02-21T08:08:30;12.20;99.90
1447;DHT22;717;51.522;7.266;2024-02-21T08:11:03;12.20;99.90
1447;DHT22;717;51.522;7.266;2024-02-21T08:13:34;12.20;99.90
1447;DHT22;717;51.522;7.266;2024-02-21T08:16:05;12.20;99.90
1447;DHT22;717;51.522;7.266;2024-02-21T08:18:35;12.20;99.90
1447;DHT22;717;51.522;7.266;2024-02-21T08:21:06;12.20;99.90
1447;DHT22;717;51.522;7.266;2024-02-21T08:23:36;12.20;99.90
1447;DHT22;717;51.522;7.266;2024-02-21T08:26:09;12.20;99.90
1447;DHT22;717;51.522;7.266;2024-02-21T08:28:40;12.30;99.90
1447;DHT22;717;51.522;7.266;2024-02-21T08:31:10;12.30;99.90
1447;DHT22;717;51.522;7.266;2024-02-21T08:33:40;12.30;99.90
1447;DHT22;717;51.522;7.266;2024-02-21T08:36:17;12.30;99.90
1447;DHT22;717;51.522;7.266;2024-02-21T08:38:47;12.20;99.90
1447;DHT22;717;51.522;7.266;2024-02-21T08:41:20;12.20;99.90
1447;DHT22;717;51.522;7.266;2024-02-21T08:44:08;12.20;99.90
1447;DHT22;717;51.522;7.266;2024-02-21T08:46:38;12.30;99.90
1447;DHT22;717;51.522;7.266;2024-02-21T08:49:10;12.20;99.90
1447;DHT22;717;51.522;7.266;2024-02-21T08:51:41;12.30;99.90
1447;DHT22;717;51.522;7.266;2024-02-21T08:54:11;12.30;99.90
1447;DHT22;717;51.522;7.266;2024-02-21T08:56:44;12.30;99.90
1447;DHT22;717;51.522;7.266;2024-02-21T08:59:14;12.40;99.90
1447;DHT22;717;51.522;7.266;2024-02-21T09:01:45;12.40;99.90
1447;DHT22;717;51.522;7.266;2024-02-21T09:04:15;12.40;99.90
1447;DHT22;717;51.522;7.266;2024-02-21T09:06:45;12.40;99.90
1447;DHT22;717;51.522;7.266;2024-02-21T09:09:16;12.40;99.90
1447;DHT22;717;51.522;7.266;2024-02-21T09:11:50;12.50;99.90
1447;DHT22;717;51.522;7.266;2024-02-21T09:14:20;12.40;99.90
1447;DHT22;717;51.522;7.266;2024-02-21T09:16:50;12.30;99.90
1447;DHT22;717;51.522;7.266;2024-02-21T09:19:21;12.20;99.90
1447;DHT22;717;51.522;7.266;2024-02-21T09:21:51;12.20;99.90
1447;DHT22;717;51.522;7.266;2024-02-21T09:24:21;12.20;99.90
1447;DHT22;717;51.522;7.266;2024-02-21T09:26:54;12.10;99.90
1447;DHT22;717;51.522;7.266;2024-02-21T09:29:24;12.10;99.90
1447;DHT22;717;51.522;7.266;2024-02-21T09:31:55;12.10;99.90
1447;DHT22;717;51.522;7.266;2024-02-21T09:34:25;12.10;99.90
1447;DHT22;717;51.522;7.266;2024-02-21T09:36:55;12.20;99.90
1447;DHT22;717;51.522;7.266;2024-02-21T09:39:26;12.20;99.90
1447;DHT22;717;51.522;7.266;2024-02-21T09:42:02;12.10;99.90
1447;DHT22;717;51.522;7.266;2024-02-21T09:44:36;12.10;99.90
1447;DHT22;717;51.522;7.266;2024-02-21T09:47:10;12.10;99.90
1447;DHT22;717;51.522;7.266;2024-02-21T09:49:42;12.10;99.90
1447;DHT22;717;51.522;7.266;2024-02-21T09:52:15;12.10;99.90
1447;DHT22;717;51.522;7.266;2024-02-21T09:54:47;12.10;99.90
1447;DHT22;717;51.522;7.266;2024-02-21T09:57:22;12.10;99.90
1447;DHT22;717;51.522;7.266;2024-02-21T09:59:52;12.10;99.90
1447;DHT22;717;51.522;7.266;2024-02-21T10:02:23;12.00;99.90
1447;DHT22;717;51.522;7.266;2024-02-21T10:04:53;12.00;99.90
1447;DHT22;717;51.522;7.266;2024-02-21T10:07:24;11.90;99.90
1447;DHT22;717;51.522;7.266;2024-02-21T10:10:01;12.00;99.90
1447;DHT22;717;51.522;7.266;2024-02-21T10:12:34;12.00;99.90
1447;DHT22;717;51.522;7.266;2024-02-21T10:15:06;11.90;99.90
1447;DHT22;717;51.522;7.266;2024-02-21T10:17:36;12.00;99.90
1447;DHT22;717;51.522;7.266;2024-02-21T10:20:08;11.90;99.90
1447;DHT22;717;51.522;7.266;2024-02-21T10:22:39;11.90;99.90
1447;DHT22;717;51.522;7.266;2024-02-21T10:25:10;12.00;99.90
1447;DHT22;717;51.522;7.266;2024-02-21T10:27:43;12.00;99.90
1447;DHT22;717;51.522;7.266;2024-02-21T10:30:14;12.10;99.90
1447;DHT22;717;51.522;7.266;2024-02-21T10:32:51;12.10;99.90
1447;DHT22;717;51.522;7.266;2024-02-21T10:35:26;12.00;99.90
1447;DHT22;717;51.522;7.266;2024-02-21T10:37:58;12.10;99.90
1447;DHT22;717;51.522;7.266;2024-02-21T10:40:31;12.10;99.90
1447;DHT22;717;51.522;7.266;2024-02-21T10:43:05;12.10;99.90
1447;DHT22;717;51.522;7.266;2024-02-21T10:45:41;12.20;99.90
1447;DHT22;717;51.522;7.266;2024-02-21T10:48:14;12.20;99.90
1447;DHT22;717;51.522;7.266;2024-02-21T10:50:57;12.30;99.90
1447;DHT22;717;51.522;7.266;2024-02-21T10:53:35;12.30;99.90
1447;DHT22;717;51.522;7.266;2024-02-21T10:56:16;12.30;99.90
1447;DHT22;717;51.522;7.266;2024-02-21T10:58:52;12.30;99.90
1447;DHT22;717;51.522;7.266;2024-02-21T11:01:24;12.30;99.90
1447;DHT22;717;51.522;7.266;2024-02-21T11:03:58;12.30;99.90
1447;DHT22;717;51.522;7.266;2024-02-21T11:06:30;12.40;99.90
1447;DHT22;717;51.522;7.266;2024-02-21T11:09:02;12.40;99.90
1447;DHT22;717;51.522;7.266;2024-02-21T11:11:33;12.40;99.90
1447;DHT22;717;51.522;7.266;2024-02-21T11:14:11;12.40;99.90
1447;DHT22;717;51.522;7.266;2024-02-21T11:16:42;12.50;99.90
1447;DHT22;717;51.522;7.266;2024-02-21T11:19:20;12.60;99.90
1447;DHT22;717;51.522;7.266;2024-02-21T11:21:53;12.70;99.90
1447;DHT22;717;51.522;7.266;2024-02-21T11:24:28;12.60;99.90
1447;DHT22;717;51.522;7.266;2024-02-21T11:27:08;12.60;99.90
1447;DHT22;717;51.522;7.266;2024-02-21T11:29:43;12.70;99.90
1447;DHT22;717;51.522;7.266;2024-02-21T11:32:15;12.70;99.90
1447;DHT22;717;51.522;7.266;2024-02-21T11:34:56;12.70;99.90
1447;DHT22;717;51.522;7.266;2024-02-21T11:37:31;12.80;99.90
1447;DHT22;717;51.522;7.266;2024-02-21T11:40:06;12.80;99.90
1447;DHT22;717;51.522;7.266;2024-02-21T11:42:39;12.90;99.90
1447;DHT22;717;51.522;7.266;2024-02-21T11:45:14;12.80;99.90
1447;DHT22;717;51.522;7.266;2024-02-21T11:47:48;12.90;99.90
1447;DHT22;717;51.522;7.266;2024-02-21T11:50:19;13.00;99.90
1447;DHT22;717;51.522;7.266;2024-02-21T11:52:54;13.00;99.90
1447;DHT22;717;51.522;7.266;2024-02-21T11:55:31;13.00;99.90
1447;DHT22;717;51.522;7.266;2024-02-21T11:58:02;13.10;99.90
1447;DHT22;717;51.522;7.266;2024-02-21T12:00:36;13.10;99.90
1447;DHT22;717;51.522;7.266;2024-02-21T12:03:07;13.10;99.90
1447;DHT22;717;51.522;7.266;2024-02-21T12:05:38;13.20;99.90
1447;DHT22;717;51.522;7.266;2024-02-21T12:08:08;13.20;99.90
1447;DHT22;717;51.522;7.266;2024-02-21T12:10:38;13.20;99.90
1447;DHT22;717;51.522;7.266;2024-02-21T12:13:09;13.20;99.90
1447;DHT22;717;51.522;7.266;2024-02-21T12:15:47;13.30;99.90
1447;DHT22;717;51.522;7.266;2024-02-21T12:18:18;13.30;99.90
1447;DHT22;717;51.522;7.266;2024-02-21T12:20:49;13.30;99.90
1447;DHT22;717;51.522;7.266;2024-02-21T12:23:20;13.30;99.90
1447;DHT22;717;51.522;7.266;2024-02-21T12:25:51;13.40;99.90
1447;DHT22;717;51.522;7.266;2024-02-21T12:28:22;13.40;99.90
1447;DHT22;717;51.522;7.266;2024-02-21T12:30:55;13.40;99.90
1447;DHT22;717;51.522;7.266;2024-02-21T12:33:25;13.50;99.90
1447;DHT22;717;51.522;7.266;2024-02-21T12:35:55;13.50;99.90
1447;DHT22;717;51.522;7.266;2024-02-21T12:38:26;13.60;99.90
1447;DHT22;717;51.522;7.266;2024-02-21T12:40:56;13.70;99.90
1447;DHT22;717;51.522;7.266;2024-02-21T12:43:27;13.70;99.90
1447;DHT22;717;51.522;7.266;2024-02-21T12:46:01;13.70;99.90
1447;DHT22;717;51.522;7.266;2024-02-21T12:48:31;13.70;99.90
1447;DHT22;717;51.522;7.266;2024-02-21T12:51:02;13.80;99.90
1447;DHT22;717;51.522;7.266;2024-02-21T12:53:32;13.90;99.90
1447;DHT22;717;51.522;7.266;2024-02-21T12:56:02;13.80;99.90
1447;DHT22;717;51.522;7.266;2024-02-21T12:58:34;13.90;99.90
1447;DHT22;717;51.522;7.266;2024-02-21T13:01:07;13.90;99.90
1447;DHT22;717;51.522;7.266;2024-02-21T13:03:38;13.90;99.90
1447;DHT22;717;51.522;7.266;2024-02-21T13:06:08;13.90;99.90
1447;DHT22;717;51.522;7.266;2024-02-21T13:08:39;13.90;99.90
1447;DHT22;717;51.522;7.266;2024-02-21T13:11:09;13.90;99.90
1447;DHT22;717;51.522;7.266;2024-02-21T13:13:39;14.00;99.90
1447;DHT22;717;51.522;7.266;2024-02-21T13:16:12;14.00;99.90
1447;DHT22;717;51.522;7.266;2024-02-21T13:18:42;14.00;99.90
1447;DHT22;717;51.522;7.266;2024-02-21T13:21:15;14.00;99.90
1447;DHT22;717;51.522;7.266;2024-02-21T13:23:45;14.10;99.90
1447;DHT22;717;51.522;7.266;2024-02-21T13:26:15;14.10;99.90
1447;DHT22;717;51.522;7.266;2024-02-21T13:28:47;14.20;99.90
1447;DHT22;717;51.522;7.266;2024-02-21T13:31:20;14.20;99.90
1447;DHT22;717;51.522;7.266;2024-02-21T13:33:52;14.20;99.90
1447;DHT22;717;51.522;7.266;2024-02-21T13:36:23;14.30;99.90
1447;DHT22;717;51.522;7.266;2024-02-21T13:38:53;14.30;99.90
1447;DHT22;717;51.522;7.266;2024-02-21T13:41:23;14.30;99.90
1447;DHT22;717;51.522;7.266;2024-02-21T13:43:54;14.40;99.90
1447;DHT22;717;51.522;7.266;2024-02-21T13:46:27;14.40;99.90
1447;DHT22;717;51.522;7.266;2024-02-21T13:49:03;14.40;99.90
1447;DHT22;717;51.522;7.266;2024-02-21T13:51:35;14.40;99.90
1447;DHT22;717;51.522;7.266;2024-02-21T13:54:08;14.40;99.90
1447;DHT22;717;51.522;7.266;2024-02-21T13:56:38;14.40;99.90
1447;DHT22;717;51.522;7.266;2024-02-21T13:59:08;14.40;99.90
1447;DHT22;717;51.522;7.266;2024-02-21T14:01:41;14.50;99.90
1447;DHT22;717;51.522;7.266;2024-02-21T14:04:12;14.50;99.90
1447;DHT22;717;51.522;7.266;2024-02-21T14:06:42;14.50;99.90
1447;DHT22;717;51.522;7.266;2024-02-21T14:09:13;14.50;99.90
1447;DHT22;717;51.522;7.266;2024-02-21T14:11:43;14.60;99.90
1447;DHT22;717;51.522;7.266;2024-02-21T14:14:14;14.60;99.90
1447;DHT22;717;51.522;7.266;2024-02-21T14:16:48;14.60;99.90
1447;DHT22;717;51.522;7.266;2024-02-21T14:19:18;14.50;99.90
1447;DHT22;717;51.522;7.266;2024-02-21T14:21:48;14.50;99.90
1447;DHT22;717;51.522;7.266;2024-02-21T14:24:20;14.50;99.90
1447;DHT22;717;51.522;7.266;2024-02-21T14:26:50;14.50;99.90
1447;DHT22;717;51.522;7.266;2024-02-21T14:29:20;14.50;99.90
1447;DHT22;717;51.522;7.266;2024-02-21T14:31:53;14.50;99.90
1447;DHT22;717;51.522;7.266;2024-02-21T14:34:23;14.50;99.90
1447;DHT22;717;51.522;7.266;2024-02-21T14:36:55;14.50;99.90
1447;DHT22;717;51.522;7.266;2024-02-21T14:39:25;14.50;99.90
1447;DHT22;717;51.522;7.266;2024-02-21T14:41:55;14.50;99.90
1447;DHT22;717;51.522;7.266;2024-02-21T14:44:27;14.50;99.90
1447;DHT22;717;51.522;7.266;2024-02-21T14:47:00;14.40;99.90
1447;DHT22;717;51.522;7.266;2024-02-21T14:49:31;14.50;99.90
1447;DHT22;717;51.522;7.266;2024-02-21T14:52:02;14.40;99.90
1447;DHT22;717;51.522;7.266;2024-02-21T14:54:32;14.50;99.90
1447;DHT22;717;51.522;7.266;2024-02-21T14:57:03;14.50;99.90
1447;DHT22;717;51.522;7.266;2024-02-21T14:59:33;14.50;99.90
1447;DHT22;717;51.522;7.266;2024-02-21T15:02:06;14.50;99.90
1447;DHT22;717;51.522;7.266;2024-02-21T15:04:37;14.40;99.90
1447;DHT22;717;51.522;7.266;2024-02-21T15:07:07;14.40;99.90
1447;DHT22;717;51.522;7.266;2024-02-21T15:09:37;14.40;99.90
1447;DHT22;717;51.522;7.266;2024-02-21T15:12:07;14.40;99.90
1447;DHT22;717;51.522;7.266;2024-02-21T15:14:37;14.40;99.90
1447;DHT22;717;51.522;7.266;2024-02-21T15:17:11;14.30;99.90
1447;DHT22;717;51.522;7.266;2024-02-21T15:19:41;14.30;99.90
1447;DHT22;717;51.522;7.266;2024-02-21T15:22:24;14.30;99.90
1447;DHT22;717;51.522;7.266;2024-02-21T15:24:54;14.40;99.90
1447;DHT22;717;51.522;7.266;2024-02-21T15:27:25;14.40;99.90
1447;DHT22;717;51.522;7.266;2024-02-21T15:30:08;14.40;99.90
1447;DHT22;717;51.522;7.266;2024-02-21T15:32:41;14.40;99.90
1447;DHT22;717;51.522;7.266;2024-02-21T15:35:12;14.40;99.90
1447;DHT22;717;51.522;7.266;2024-02-21T15:37:43;14.40;99.90
1447;DHT22;717;51.522;7.266;2024-02-21T15:40:14;14.40;99.90
1447;DHT22;717;51.522;7.266;2024-02-21T15:42:45;14.40;99.90
1447;DHT22;717;51.522;7.266;2024-02-21T15:45:15;14.40;99.90
1447;DHT22;717;51.522;7.266;2024-02-21T15:47:49;14.40;99.90
1447;DHT22;717;51.522;7.266;2024-02-21T15:50:21;14.40;99.90
1447;DHT22;717;51.522;7.266;2024-02-21T15:53:08;14.40;99.90
1447;DHT22;717;51.522;7.266;2024-02-21T15:55:38;14.30;99.90
1447;DHT22;717;51.522;7.266;2024-02-21T15:58:09;14.30;99.90
1447;DHT22;717;51.522;7.266;2024-02-21T16:00:39;14.30;99.90
1447;DHT22;717;51.522;7.266;2024-02-21T16:03:12;14.30;99.90
1447;DHT22;717;51.522;7.266;2024-02-21T16:05:42;14.30;99.90
1447;DHT22;717;51.522;7.266;2024-02-21T16:08:12;14.30;99.90
1447;DHT22;717;51.522;7.266;2024-02-21T16:10:45;14.20;99.90
1447;DHT22;717;51.522;7.266;2024-02-21T16:13:16;14.20;99.90
1447;DHT22;717;51.522;7.266;2024-02-21T16:15:47;14.20;99.90
1447;DHT22;717;51.522;7.266;2024-02-21T16:18:20;14.20;99.90
1447;DHT22;717;51.522;7.266;2024-02-21T16:20:50;14.20;99.90
1447;DHT22;717;51.522;7.266;2024-02-21T16:23:21;14.20;99.90
1447;DHT22;717;51.522;7.266;2024-02-21T16:25:52;14.20;99.90
1447;DHT22;717;51.522;7.266;2024-02-21T16:28:22;14.10;99.90
1447;DHT22;717;51.522;7.266;2024-02-21T16:30:53;14.10;99.90
1447;DHT22;717;51.522;7.266;2024-02-21T16:33:27;14.10;99.90
1447;DHT22;717;51.522;7.266;2024-02-21T16:35:58;14.10;99.90
1447;DHT22;717;51.522;7.266;2024-02-21T16:38:29;14.10;99.90
1447;DHT22;717;51.522;7.266;2024-02-21T16:41:00;14.10;99.90
1447;DHT22;717;51.522;7.266;2024-02-21T16:43:30;14.10;99.90
1447;DHT22;717;51.522;7.266;2024-02-21T16:46:00;14.10;99.90